createdAt,value
2023-02-23T00:03:18.754Z,5.90
2023-02-23T00:08:20.631Z,5.80
2023-02-23T00:13:22.404Z,5.80
2023-02-23T00:18:24.235Z,5.70
2023-02-23T00:23:27.387Z,5.70
2023-02-23T00:28:29.217Z,5.70
2023-02-23T00:33:31.590Z,5.70
2023-02-23T00:38:36.114Z,5.60
2023-02-23T00:43:39.671Z,5.50
2023-02-23T00:48:41.462Z,5.50
2023-02-23T00:53:44.161Z,5.40
2023-02-23T00:58:46.220Z,5.40
2023-02-23T01:03:49.000Z,5.30
2023-02-23T01:08:56.680Z,5.30
2023-02-23T01:13:59.885Z,5.30
2023-02-23T01:19:04.613Z,5.30
2023-02-23T01:24:07.019Z,5.20
2023-02-23T01:29:14.317Z,5.20
2023-02-23T01:34:16.124Z,5.10
2023-02-23T01:39:20.004Z,5.10
2023-02-23T01:44:21.795Z,5.00
2023-02-23T01:49:26.627Z,5.00
2023-02-23T01:54:40.210Z,4.90
2023-02-23T01:59:47.127Z,4.90
2023-02-23T02:04:52.128Z,4.90
2023-02-23T02:10:11.473Z,4.90
2023-02-23T02:15:19.786Z,4.80
2023-02-23T02:20:38.309Z,4.80
2023-02-23T02:25:55.702Z,4.80
2023-02-23T02:31:16.275Z,4.70
2023-02-23T02:36:44.539Z,4.70
2023-02-23T02:42:08.485Z,4.70
2023-02-23T02:47:19.186Z,4.60
2023-02-23T02:52:25.522Z,4.50
2023-02-23T02:57:28.874Z,4.40
2023-02-23T03:02:51.832Z,4.40
2023-02-23T03:08:18.310Z,4.30
2023-02-23T03:13:52.163Z,4.30
2023-02-23T03:19:34.388Z,4.20
2023-02-23T03:25:17.802Z,4.20
2023-02-23T03:30:56.595Z,4.20
2023-02-23T03:36:23.668Z,4.20
2023-02-23T03:41:45.625Z,4.20
2023-02-23T03:47:06.650Z,4.20
2023-02-23T03:52:34.825Z,4.20
2023-02-23T03:57:56.138Z,4.20
2023-02-23T04:03:18.337Z,4.20
2023-02-23T04:08:39.700Z,4.10
2023-02-23T04:13:43.384Z,4.10
2023-02-23T04:18:45.233Z,4.10
2023-02-23T04:23:48.154Z,4.20
2023-02-23T04:28:49.935Z,4.10
2023-02-23T04:33:51.720Z,4.00
2023-02-23T04:38:53.548Z,4.00
2023-02-23T04:43:56.344Z,3.90
2023-02-23T04:48:58.191Z,3.80
2023-02-23T04:54:00.340Z,3.80
2023-02-23T04:59:02.157Z,3.70
2023-02-23T05:04:03.979Z,3.70
2023-02-23T05:09:06.957Z,3.70
2023-02-23T05:14:10.202Z,3.60
2023-02-23T05:19:12.004Z,3.60
2023-02-23T05:24:13.779Z,3.60
2023-02-23T05:29:15.563Z,3.50
2023-02-23T05:34:27.181Z,3.40
2023-02-23T05:39:29.015Z,3.30
2023-02-23T05:44:30.843Z,3.30
2023-02-23T05:49:32.757Z,3.30
2023-02-23T05:54:34.628Z,3.30
2023-02-23T05:59:36.562Z,3.30
2023-02-23T06:04:39.483Z,3.20
2023-02-23T06:09:43.458Z,3.20
2023-02-23T06:14:46.349Z,3.20
2023-02-23T06:19:48.147Z,3.30
2023-02-23T06:24:49.976Z,3.30
2023-02-23T06:29:54.689Z,3.40
2023-02-23T06:34:56.530Z,3.40
2023-02-23T06:40:08.626Z,3.50
2023-02-23T06:45:11.015Z,3.70
2023-02-23T06:50:14.556Z,4.00
2023-02-23T06:55:16.835Z,4.30
2023-02-23T07:00:19.084Z,4.40
2023-02-23T07:05:21.016Z,4.50
2023-02-23T07:10:22.868Z,4.60
2023-02-23T07:15:24.726Z,4.70
2023-02-23T07:20:26.660Z,4.90
2023-02-23T07:25:29.369Z,5.10
2023-02-23T07:30:31.284Z,5.30
2023-02-23T07:35:33.127Z,5.40
2023-02-23T07:40:35.239Z,5.60
2023-02-23T07:45:37.449Z,5.70
2023-02-23T07:50:40.439Z,5.90
2023-02-23T07:55:42.230Z,5.90
2023-02-23T08:00:44.077Z,6.10
2023-02-23T08:05:45.982Z,6.10
2023-02-23T08:10:49.946Z,6.30
2023-02-23T08:15:51.914Z,6.50
2023-02-23T08:21:04.538Z,6.60
2023-02-23T08:26:06.452Z,6.80
2023-02-23T08:31:14.521Z,6.90
2023-02-23T08:36:16.472Z,7.00
2023-02-23T08:41:18.726Z,7.10
2023-02-23T08:46:20.804Z,7.20
2023-02-23T08:51:23.056Z,7.40
2023-02-23T08:56:25.384Z,7.50
2023-02-23T09:01:27.231Z,7.70
2023-02-23T09:06:29.116Z,7.80
2023-02-23T09:11:30.897Z,8.10
2023-02-23T09:16:33.443Z,8.30
2023-02-23T09:21:35.394Z,8.70
2023-02-23T09:26:39.976Z,9.20
2023-02-23T09:31:52.917Z,9.30
2023-02-23T09:36:55.654Z,9.60
2023-02-23T09:42:11.259Z,9.70
2023-02-23T09:47:41.130Z,9.90
2023-02-23T09:52:45.663Z,10.10
2023-02-23T09:57:49.412Z,10.50
2023-02-23T10:03:04.263Z,10.60
2023-02-23T10:08:09.266Z,10.60
2023-02-23T10:13:20.028Z,10.70
2023-02-23T10:18:47.051Z,10.90
2023-02-23T10:24:19.467Z,11.20
2023-02-23T10:29:32.502Z,11.70
2023-02-23T10:34:37.214Z,12.00
2023-02-23T10:39:40.605Z,12.10
2023-02-23T10:44:44.268Z,12.20
2023-02-23T10:49:51.394Z,12.30
2023-02-23T10:54:53.359Z,12.30
2023-02-23T11:00:06.745Z,12.20
2023-02-23T11:05:35.713Z,12.30
2023-02-23T11:10:37.593Z,12.50
2023-02-23T11:15:50.683Z,12.50
2023-02-23T11:20:53.128Z,12.60
2023-02-23T11:26:23.045Z,12.70
2023-02-23T11:31:32.360Z,12.70
2023-02-23T11:36:36.032Z,12.90
2023-02-23T11:41:37.879Z,13.00
2023-02-23T11:46:45.723Z,13.20
2023-02-23T11:51:49.878Z,13.20
2023-02-23T11:56:54.928Z,13.10
2023-02-23T12:02:22.963Z,12.90
2023-02-23T12:07:43.978Z,13.00
2023-02-23T12:12:54.887Z,13.10
2023-02-23T12:18:07.495Z,13.20
2023-02-23T12:23:13.825Z,13.20
2023-02-23T12:28:34.371Z,13.30
2023-02-23T12:34:04.209Z,13.30
2023-02-23T12:39:31.707Z,13.10
2023-02-23T12:44:54.285Z,13.00
2023-02-23T12:50:13.507Z,13.00
2023-02-23T12:55:16.403Z,13.10
2023-02-23T13:00:29.901Z,13.20
2023-02-23T13:05:32.546Z,13.00
2023-02-23T13:11:07.376Z,12.80
2023-02-23T13:16:17.557Z,12.60
2023-02-23T13:21:29.125Z,12.70
2023-02-23T13:26:39.337Z,12.70
2023-02-23T13:31:41.768Z,12.70
2023-02-23T13:36:44.242Z,12.70
2023-02-23T13:42:09.768Z,12.70
2023-02-23T13:47:38.703Z,12.70
2023-02-23T13:52:43.271Z,12.80
2023-02-23T13:57:46.135Z,12.90
2023-02-23T14:02:48.869Z,13.20
2023-02-23T14:07:56.113Z,13.20
2023-02-23T14:13:13.164Z,13.20
2023-02-23T14:18:17.696Z,13.20
2023-02-23T14:23:22.320Z,13.10
2023-02-23T14:28:31.163Z,13.00
2023-02-23T14:33:42.266Z,13.00
2023-02-23T14:38:48.299Z,13.00
2023-02-23T14:43:54.895Z,12.90
2023-02-23T14:49:05.691Z,12.80
2023-02-23T14:54:29.954Z,12.80
2023-02-23T14:59:42.528Z,12.80
2023-02-23T15:04:44.535Z,12.70
2023-02-23T15:09:47.095Z,12.60
2023-02-23T15:14:52.210Z,12.50
2023-02-23T15:20:14.737Z,12.50
2023-02-23T15:25:20.891Z,12.50
2023-02-23T15:30:31.412Z,12.50
2023-02-23T15:35:47.438Z,12.40
2023-02-23T15:40:52.541Z,12.30
2023-02-23T15:45:54.743Z,12.20
2023-02-23T15:50:57.838Z,12.10
2023-02-23T15:56:16.134Z,11.90
2023-02-23T16:01:25.290Z,11.80
2023-02-23T16:06:32.929Z,11.60
2023-02-23T16:11:36.086Z,11.50
2023-02-23T16:16:38.117Z,11.30
2023-02-23T16:21:40.159Z,11.20
2023-02-23T16:26:46.799Z,11.10
2023-02-23T16:31:50.807Z,11.00
2023-02-23T16:36:58.762Z,10.90
2023-02-23T16:42:01.073Z,10.80
2023-02-23T16:47:02.917Z,10.70
2023-02-23T16:52:13.286Z,10.60
2023-02-23T16:57:22.455Z,10.50
2023-02-23T17:02:24.484Z,10.40
2023-02-23T17:07:26.419Z,10.30
2023-02-23T17:12:29.634Z,10.30
2023-02-23T17:17:31.638Z,10.20
2023-02-23T17:22:33.498Z,10.20
2023-02-23T17:27:35.356Z,10.20
2023-02-23T17:32:37.723Z,10.10
2023-02-23T17:37:39.674Z,10.10
2023-02-23T17:42:41.694Z,10.10
2023-02-23T17:47:43.644Z,10.10
2023-02-23T17:52:47.315Z,10.00
2023-02-23T17:57:49.261Z,10.00
2023-02-23T18:02:51.274Z,10.00
2023-02-23T18:14:40.239Z,9.90
2023-02-23T18:19:43.346Z,9.80
2023-02-23T18:24:45.246Z,9.80
2023-02-23T18:29:47.167Z,9.70
2023-02-23T18:34:49.416Z,9.70
2023-02-23T18:39:53.146Z,9.70
2023-02-23T18:44:56.583Z,9.60
2023-02-23T18:50:01.639Z,9.60
2023-02-23T18:55:05.423Z,9.60
2023-02-23T19:00:11.502Z,9.60
2023-02-23T19:05:22.910Z,9.60
2023-02-23T19:10:24.938Z,9.60
2023-02-23T19:15:36.903Z,9.60
2023-02-23T19:20:38.914Z,9.60
2023-02-23T19:25:40.840Z,9.50
2023-02-23T19:30:46.069Z,9.50
2023-02-23T19:35:47.938Z,9.50
2023-02-23T19:40:49.840Z,9.40
2023-02-23T19:45:52.135Z,9.40
2023-02-23T19:50:54.677Z,9.40
2023-02-23T19:56:08.395Z,9.30
2023-02-23T20:01:12.212Z,9.30
2023-02-23T20:06:17.199Z,9.20
2023-02-23T20:11:19.869Z,9.20
2023-02-23T20:16:23.698Z,9.20
2023-02-23T20:21:36.135Z,9.20
2023-02-23T20:26:40.127Z,9.20
2023-02-23T20:31:50.822Z,9.20
2023-02-23T20:36:55.027Z,9.20
2023-02-23T20:42:03.125Z,9.30
2023-02-23T20:47:24.586Z,9.30
2023-02-23T20:52:29.531Z,9.30
2023-02-23T20:57:32.725Z,9.30
2023-02-23T21:02:35.157Z,9.30
2023-02-23T21:07:40.560Z,9.30
2023-02-23T21:12:42.405Z,9.30
2023-02-23T21:17:44.226Z,9.30
2023-02-23T21:22:49.312Z,9.30
2023-02-23T21:27:51.616Z,9.30
2023-02-23T21:32:53.521Z,9.30
2023-02-23T21:37:56.825Z,9.20
2023-02-23T21:43:08.652Z,9.20
2023-02-23T21:48:10.974Z,9.20
2023-02-23T21:53:12.836Z,9.20
2023-02-23T21:58:14.943Z,9.10
2023-02-23T22:03:19.427Z,9.10
2023-02-23T22:08:27.280Z,9.10
2023-02-23T22:13:29.187Z,9.10
2023-02-23T22:18:31.405Z,9.00
2023-02-23T22:23:34.598Z,9.00
2023-02-23T22:28:36.834Z,9.00
2023-02-23T22:33:44.217Z,9.00
2023-02-23T22:38:46.779Z,9.00
2023-02-23T22:43:48.743Z,9.00
2023-02-23T22:48:50.723Z,9.00
2023-02-23T22:53:52.529Z,8.90
2023-02-23T22:58:56.095Z,8.90
2023-02-23T23:03:57.918Z,8.90
2023-02-23T23:09:03.680Z,8.90
2023-02-23T23:14:10.277Z,8.90
2023-02-23T23:19:12.355Z,8.90
2023-02-23T23:24:15.609Z,8.90
2023-02-23T23:29:17.955Z,8.80
2023-02-23T23:34:21.677Z,8.80
2023-02-23T23:39:26.029Z,8.80
2023-02-23T23:44:29.363Z,8.80
2023-02-23T23:49:37.846Z,8.70
2023-02-23T23:54:41.188Z,8.70
2023-02-23T23:59:45.957Z,8.50
